CDT,Max TemperatureF,Mean TemperatureF,Min TemperatureF,Max Dew PointF,MeanDew PointF,Min DewpointF,Max Humidity, Mean Humidity, Min Humidity, Max Sea Level PressureIn, Mean Sea Level PressureIn, Min Sea Level PressureIn, Max VisibilityMiles, Mean VisibilityMiles, Min VisibilityMiles, Max Wind SpeedMPH, Mean Wind SpeedMPH, Max Gust SpeedMPH,PrecipitationIn, CloudCover, Events, WindDirDegrees
2013-9-1,85,74,63,76,66,58,100,80,46,29.87,29.80,29.75,10,7,0,17,6,23,0.08,4,Fog-Rain,266
2013-9-2,73,64,55,65,57,51,100,80,47,30.03,29.97,29.86,10,10,10,14,7,17,0.00,3,,334
2013-9-3,76,64,52,58,53,47,100,75,38,30.11,30.06,30.03,10,10,7,12,5,,0.00,0,,320
2013-9-4,85,70,56,64,58,53,100,67,37,30.14,30.11,30.06,10,10,7,13,9,16,0.00,0,,254
2013-9-5,77,68,58,68,58,49,100,71,46,30.27,30.21,30.12,10,8,0,13,8,17,0.00,3,Fog,83
2013-9-6,86,72,57,64,57,48,91,61,42,30.23,30.13,30.00,10,10,10,16,7,22,0.00,2,,171
2013-9-7,90,78,65,74,65,62,100,69,41,30.00,29.95,29.90,10,10,10,21,10,24,0.00,2,Rain,219
2013-9-8,75,69,64,74,69,65,100,98,73,30.06,30.01,29.96,10,10,5,18,11,24,0.00,7,,63
2013-9-9,94,80,66,79,70,67,100,74,42,29.97,29.88,29.81,10,8,2,18,8,25,0.00,4,,166
2013-9-10,95,84,72,67,59,54,64,45,24,29.99,29.95,29.87,10,10,7,25,14,32,0.00,1,,218
2013-9-11,84,76,69,71,64,60,100,69,46,30.08,30.04,29.98,10,10,10,14,8,20,0.01,2,Rain,262
2013-9-12,76,67,58,70,54,43,100,66,31,30.14,30.05,30.01,10,10,10,21,10,28,0.00,1,,319
2013-9-13,67,56,45,52,40,30,100,59,26,30.23,30.18,30.14,10,10,10,14,8,20,0.00,0,,21
2013-9-14,72,60,47,50,43,39,100,60,31,30.18,30.11,30.00,10,10,10,13,7,23,0.00,0,,187
2013-9-15,60,56,53,59,53,42,100,93,51,30.22,30.05,29.97,10,9,4,14,6,18,0.72,7,Rain,63
2013-9-16,66,56,46,56,47,41,100,76,41,30.39,30.33,30.22,10,10,10,16,10,21,0.00,2,,46
2013-9-17,69,56,45,62,51,45,100,82,54,30.34,30.23,30.09,10,10,4,14,6,21,0.00,3,,120
2013-9-18,77,68,59,75,65,56,100,93,69,30.09,29.98,29.90,10,10,5,18,10,23,0.10,4,Rain-Thunderstorm,170
2013-9-19,90,79,68,76,70,64,100,81,43,29.91,29.85,29.75,10,9,4,20,12,30,0.17,4,Rain-Thunderstorm,191
2013-9-20,69,62,55,68,60,49,100,87,54,29.86,29.82,29.77,10,10,4,23,14,28,0.03,5,Rain,256
2013-9-21,63,56,50,55,48,43,100,78,50,29.96,29.91,29.85,10,10,10,15,8,20,0.00,2,,322
2013-9-22,67,54,43,52,47,43,100,78,43,30.07,30.02,29.96,10,10,5,7,3,,0.00,0,,72
2013-9-23,70,57,44,53,48,45,100,77,45,30.11,30.06,30.01,10,10,7,10,6,,0.00,0,,102
2013-9-24,72,60,47,55,50,45,100,76,38,30.04,30.00,29.94,10,10,5,10,6,17,0.00,0,,93
2013-9-25,73,60,47,59,50,44,100,78,35,30.00,29.97,29.93,10,7,0,9,6,,0.00,1,Fog,60
2013-9-26,78,64,51,60,52,47,100,60,37,30.08,30.04,29.98,10,8,0,12,6,17,0.00,2,Fog,99
2013-9-27,82,68,54,59,51,43,100,64,26,30.14,30.09,30.04,10,10,7,17,9,22,0.00,0,,142
2013-9-28,81,68,55,70,55,49,100,68,45,30.04,29.96,29.86,10,9,2,29,13,36,0.29,4,Rain,183
2013-9-29,70,58,47,55,44,36,100,61,30,30.09,30.03,29.99,10,8,0,9,5,,0.00,2,Fog,227
2013-9-30,75,60,47,52,45,39,100,60,29,30.00,29.92,29.83,10,10,10,20,11,23,0.00,0,,182